Flight Track Log - Related Links

Times and Time Zones

All times are in EDT time to prevent confusion due to time zone crossing. See the AAL533 flight status page for this flight to view local times or setup timezone preferences in your user account.

Time Position Orientation Groundspeed Altitude Reporting Facility
EDT Latitude Longitude Course Direction KTS MPH feet Rate Location/Type
Sun 02:18:03 PM 28.4333 -81.3167 90° East 149 171 600  Level Orlando TRACON
Sun 02:19:03 PM 28.3833 -81.2833 150° Southeast 203 234 3,000 2,850 Climbing Orlando TRACON
Sun 02:20:00 PM 28.2816 -81.0002 122° Southeast  Level FlightAware Approximate
Sun 02:20:03 PM 28.3500 -81.2333 127° Southeast 242 278 6,300  Level Orlando TRACON
Sun 02:21:00 PM 28.2278 -80.9034 122° Southeast  Level FlightAware Approximate
Sun 02:22:00 PM 28.1836 -80.8007 114° Southeast  Level FlightAware Approximate
Sun 02:22:24 PM 28.3044 -81.0419 105° East 272 313 12,400  Level Miami Center
Sun 02:23:00 PM 28.1333 -80.7135 90° East  Level FlightAware Approximate
Sun 02:23:24 PM 28.2817 -80.9633 108° East 306 352 14,700  Level Miami Center
Sun 02:24:24 PM 28.2494 -80.8467 107° East 348 400 16,000 650 Climbing Miami Center
Sun 02:25:24 PM 28.1672 -80.8014 154° Southeast 335 386 16,000 550 Level Miami Center
Sun 02:26:24 PM 28.0522 -80.8139 185° South 350 403 17,100 1,850 Climbing Miami Center
Sun 02:27:24 PM 27.9350 -80.8217 183° South 373 429 19,700 2,400 Climbing Miami Center
Sun 02:28:24 PM 27.8536 -80.7458 141° Southeast 352 405 21,900 1,600 Climbing Miami Center
Sun 02:29:24 PM 27.7853 -80.6475 128° Southeast 365 420 22,900 500 Climbing Miami Center
Sun 02:30:24 PM 27.7147 -80.5467 128° Southeast 380 437 22,900  Level Miami Center
Sun 02:31:24 PM 27.6247 -80.4733 144° Southeast 397 457 22,900  Level Miami Center
Sun 02:32:24 PM 27.5175 -80.4278 159° South 397 457 22,900  Level Miami Center
Sun 02:33:24 PM 27.4078 -80.3822 160° South 409 471 22,900  Level Miami Center
Sun 02:34:24 PM 27.2983 -80.3369 160° South 419 482 22,900  Level Miami Center
Sun 02:35:24 PM 27.1886 -80.2964 162° South 419 482 22,900 -550 Level Miami Center
Sun 02:36:24 PM 27.0792 -80.2486 159° South 419 482 21,800 -1,300 Descending Miami Center
Sun 02:37:24 PM 26.9694 -80.2058 161° South 419 482 20,300 -1,273 Descending Miami Center
Sun 02:38:36 PM 26.8578 -80.1583 159° South 419 482 19,000 -1,350 Descending Miami Center
Sun 02:39:24 PM 26.7417 -80.1156 162° South 422 486 17,600 -1,673 Descending Miami Center
Sun 02:40:20 PM 26.6400 -80.0825 164° South 406 467 16,100 -1,854 Descending Miami Center
Sun 02:41:27 PM 26.5194 -80.0583 170° South 394 453 13,800 -1,453 Descending Miami Center
Sun 02:42:28 PM 26.4153 -80.0417 172° South 342 394 13,000 -683 Descending Miami Center
Sun 02:43:30 PM 26.3217 -80.0300 174° South 338 389 12,400 -1,128 Descending Miami Center
Sun 02:44:25 PM 26.2361 -80.0208 175° South 331 381 10,800 -1,293 Descending Miami Center
Sun 02:45:26 PM 26.1458 -80.0461 194° South 321 369 9,900 -568 Descending Miami Center
Sun 02:46:00 PM 26.1292 -80.0478 185° South 331 381 9,900 -830 Level Miami Center
Sun 02:47:00 PM 26.0367 -80.0756 195° South 311 358 8,600 -1,263 Descending Miami Center
Sun 02:47:35 PM 25.9839 -80.0925 196° South 283 326 7,900 -375 Descending Miami Center
Sun 02:48:36 PM 25.9364 -80.1653 234° Southwest 298 343 8,000 -49 Climbing Miami Center
Sun 02:49:37 PM 25.9178 -80.2500 256° West 256 295 7,800 -1,034 Descending Miami Center
Sun 02:50:32 PM 25.8994 -80.3167 253° West 251 289 6,000 -1,707 Descending Miami Center
Sun 02:51:33 PM 25.9125 -80.3908 281° West 247 284 4,500 -1,628 Descending Miami Center
Sun 02:52:41 PM 25.8881 -80.4503 245° Southwest 228 262 2,500 -1,171 Descending Miami Center
Sun 02:53:36 PM 25.8533 -80.4169 139° Southeast 176 203 2,100 -621 Descending Miami Center
Sun 02:54:37 PM 25.8292 -80.3747 122° Southeast 147 169 1,300 -689 Descending Miami Center
Sun 02:55:38 PM 25.8133 -80.3372 115° Southeast 124 143 700 -590 Descending Miami Center

Login

Don't have an account? Register now (free) for customized features, flight alerts, and more!